Time;durP1;ratioP1;P1;durP2;ratioP2;P2;SDS_P1;SDS_P2;PMS_P1;PMS_P2;Temp;Humidity;BMP_temperature;BMP_pressure;BME280_temperature;BME280_humidity;BME280_pressure;Samples;Min_cycle;Max_cycle;Signal;HPM_P1;HPM_P2
2023/06/24 00:02:01;;;;;;;7.90;4.20;;;;;;;20.39;60.74;100877.56;5038675;28;20049;-46
2023/06/24 00:04:28;;;;;;;9.00;4.30;;;;;;;20.35;61.04;100870.69;5035937;28;20061;-43
2023/06/24 00:06:58;;;;;;;8.23;4.32;;;;;;;20.31;61.16;100876.97;5038268;28;20500;-43
2023/06/24 00:09:28;;;;;;;8.88;4.00;;;;;;;20.27;61.26;100873.56;5036877;28;20046;-46
2023/06/24 00:11:55;;;;;;;8.07;4.35;;;;;;;20.20;60.97;100862.38;5030832;28;20048;-46
2023/06/24 00:14:24;;;;;;;9.00;4.03;;;;;;;20.16;61.19;100863.34;5039777;28;20508;-47
2023/06/24 00:16:51;;;;;;;7.38;3.65;;;;;;;20.10;61.43;100860.91;5035464;28;20053;-42
2023/06/24 00:19:22;;;;;;;9.38;3.90;;;;;;;20.07;61.46;100861.00;5035338;28;20045;-42
2023/06/24 00:21:53;;;;;;;8.43;3.33;;;;;;;20.01;61.41;100857.66;5043698;28;20041;-41
2023/06/24 00:24:25;;;;;;;7.80;3.90;;;;;;;19.97;61.32;100855.13;5033512;28;20394;-43
2023/06/24 00:26:53;;;;;;;6.20;3.75;;;;;;;19.91;61.66;100858.78;5039841;28;20444;-44
2023/06/24 00:29:20;;;;;;;10.25;3.92;;;;;;;19.85;61.49;100851.06;5040400;28;20041;-46
2023/06/24 00:31:47;;;;;;;10.55;3.83;;;;;;;19.81;61.48;100854.69;5037633;28;20049;-45
2023/06/24 00:34:14;;;;;;;6.38;3.65;;;;;;;19.77;62.29;100848.69;5040079;28;20534;-43
2023/06/24 00:36:40;;;;;;;9.27;3.60;;;;;;;19.72;61.78;100851.44;5039367;28;20059;-44
2023/06/24 00:39:07;;;;;;;6.97;3.72;;;;;;;19.69;61.78;100856.78;5037820;28;20049;-43
2023/06/24 00:41:34;;;;;;;7.03;4.10;;;;;;;19.66;62.21;100854.25;5035986;28;20068;-44
2023/06/24 00:44:01;;;;;;;7.82;3.65;;;;;;;19.62;61.83;100863.97;5042027;28;20637;-43
2023/06/24 00:46:28;;;;;;;7.28;3.75;;;;;;;19.60;61.94;100864.91;5047493;28;20044;-43
2023/06/24 00:48:56;;;;;;;8.38;3.70;;;;;;;19.58;62.45;100866.72;5030630;28;20049;-43
2023/06/24 00:51:26;;;;;;;7.65;3.40;;;;;;;19.55;62.17;100879.97;5039138;28;20045;-43
2023/06/24 00:53:53;;;;;;;;;;;;;;;19.26;62.87;100875.41;5038317;28;20046;-44
2023/06/24 00:56:21;;;;;;;6.15;3.28;;;;;;;19.44;62.27;100875.84;5034933;28;19920;-42
2023/06/24 00:58:50;;;;;;;6.30;3.72;;;;;;;19.43;62.39;100871.50;5038134;28;20044;-42
2023/06/24 01:01:17;;;;;;;8.57;3.03;;;;;;;19.39;62.61;100864.63;5039899;28;20051;-44
2023/06/24 01:03:44;;;;;;;6.55;3.33;;;;;;;19.39;62.76;100865.44;5034774;28;20049;-44
2023/06/24 01:06:12;;;;;;;6.93;3.13;;;;;;;19.37;62.74;100861.16;5036138;28;20103;-43
2023/06/24 01:08:39;;;;;;;6.22;3.03;;;;;;;19.32;62.42;100868.28;5042765;28;20552;-44
2023/06/24 01:11:06;;;;;;;6.30;3.45;;;;;;;19.31;62.74;100869.19;5038765;28;20954;-46
2023/06/24 01:13:33;;;;;;;6.05;3.38;;;;;;;19.30;63.03;100865.72;5042286;28;20519;-43
2023/06/24 01:16:07;;;;;;;7.30;3.03;;;;;;;19.29;62.84;100863.13;5044287;28;20778;-42
2023/06/24 01:18:42;;;;;;;5.47;3.08;;;;;;;19.24;62.96;100858.84;5037898;28;20049;-43
2023/06/24 01:21:26;;;;;;;6.05;3.50;;;;;;;19.22;63.09;100867.69;5038727;28;20095;-43
2023/06/24 01:24:29;;;;;;;6.55;2.83;;;;;;;19.12;62.97;100867.06;5039941;28;20604;-43
2023/06/24 01:35:07;;;;;;;7.28;3.03;;;;;;;19.09;63.44;100864.50;5053922;27;20392;-43
2023/06/24 01:40:38;;;;;;;8.05;5.85;;;;;;;19.02;63.94;100867.22;5098429;27;20401;-42
2023/06/24 01:43:07;;;;;;;8.38;4.63;;;;;;;19.00;63.76;100868.19;5023011;28;20045;-42
2023/06/24 01:45:41;;;;;;;6.35;4.47;;;;;;;18.97;63.84;100869.13;5037638;28;20111;-43
2023/06/24 01:48:15;;;;;;;8.27;3.38;;;;;;;18.95;63.23;100870.91;5039978;28;20243;-43
2023/06/24 01:50:48;;;;;;;7.05;4.45;;;;;;;18.93;63.39;100875.34;5041600;28;20045;-42
2023/06/24 01:53:19;;;;;;;5.35;4.32;;;;;;;18.92;63.74;100865.75;5036276;28;20496;-40
2023/06/24 01:55:46;;;;;;;8.10;4.25;;;;;;;18.89;64.00;100858.78;5043194;28;20067;-44
2023/06/24 01:58:17;;;;;;;10.68;4.30;;;;;;;18.88;63.88;100864.13;5039628;28;20535;-42
2023/06/24 02:00:44;;;;;;;6.70;3.50;;;;;;;18.85;63.88;100864.19;5041130;28;20052;-42
2023/06/24 02:03:11;;;;;;;11.68;4.18;;;;;;;18.83;63.97;100865.97;5038463;28;20045;-43
2023/06/24 02:05:40;;;;;;;7.68;4.25;;;;;;;18.80;64.18;100861.66;5040495;28;20060;-43
2023/06/24 02:08:10;;;;;;;9.55;5.18;;;;;;;18.78;63.90;100862.59;5040426;28;20053;-45
2023/06/24 02:10:39;;;;;;;6.53;4.30;;;;;;;18.75;64.55;100853.88;5042407;28;20049;-43
2023/06/24 02:13:09;;;;;;;11.75;4.72;;;;;;;18.74;64.21;100862.66;5042143;28;20071;-42
2023/06/24 02:15:38;;;;;;;7.55;4.10;;;;;;;18.71;64.46;100867.97;5059331;28;20067;-43
2023/06/24 02:18:06;;;;;;;10.45;4.50;;;;;;;18.67;64.22;100868.97;5039371;28;20049;-43
2023/06/24 02:20:33;;;;;;;8.18;3.50;;;;;;;18.66;64.17;100864.63;5039657;28;20041;-43
2023/06/24 02:23:01;;;;;;;5.72;3.83;;;;;;;18.64;64.67;100871.66;5040869;28;20041;-43
2023/06/24 02:25:29;;;;;;;10.65;5.25;;;;;;;18.62;64.71;100871.69;5043943;28;20053;-41
2023/06/24 02:27:56;;;;;;;7.55;4.43;;;;;;;18.61;64.47;100879.63;5041402;28;20068;-43
2023/06/24 02:30:25;;;;;;;8.52;4.35;;;;;;;18.61;64.76;100871.75;5036685;28;20057;-44
2023/06/24 02:32:52;;;;;;;5.80;2.95;;;;;;;18.58;64.62;100872.66;5037526;28;20404;-44
2023/06/24 02:35:19;;;;;;;7.28;4.28;;;;;;;18.56;65.11;100874.47;5042385;28;20045;-42
2023/06/24 02:37:46;;;;;;;8.23;4.03;;;;;;;18.56;64.44;100873.59;5038572;28;20136;-45
2023/06/24 02:40:13;;;;;;;9.90;4.47;;;;;;;18.55;64.79;100877.13;5039959;28;20049;-45
2023/06/24 02:42:39;;;;;;;11.10;4.18;;;;;;;18.53;64.98;100874.53;5038949;28;20041;-43
2023/06/24 02:45:06;;;;;;;6.60;4.82;;;;;;;18.52;64.69;100871.94;5034573;28;21552;-43
2023/06/24 02:47:35;;;;;;;9.25;4.13;;;;;;;18.50;65.32;100874.59;5037514;28;20053;-43
2023/06/24 02:50:05;;;;;;;6.38;4.25;;;;;;;18.46;64.54;100865.94;5036383;28;20505;-43
2023/06/24 02:52:32;;;;;;;11.25;4.40;;;;;;;18.44;65.15;100870.34;5020088;28;20054;-44
2023/06/24 02:54:59;;;;;;;8.40;4.78;;;;;;;18.43;65.61;100863.38;5027802;28;20053;-42
2023/06/24 02:57:26;;;;;;;9.15;4.43;;;;;;;18.41;64.88;100859.91;5026070;28;20071;-43
2023/06/24 02:59:53;;;;;;;8.77;5.28;;;;;;;18.39;65.62;100861.72;5020189;28;20052;-42
2023/06/24 03:02:21;;;;;;;9.90;5.47;;;;;;;18.38;65.42;100852.16;5024302;28;20134;-46
2023/06/24 03:04:50;;;;;;;9.55;4.90;;;;;;;18.36;65.17;100857.41;5028599;28;20053;-43
2023/06/24 03:07:20;;;;;;;9.90;5.43;;;;;;;18.35;65.28;100860.06;5025224;28;20064;-43
2023/06/24 03:09:47;;;;;;;10.18;5.30;;;;;;;18.33;65.92;100856.59;5020284;28;20165;-44
2023/06/24 03:12:14;;;;;;;9.77;4.05;;;;;;;18.31;65.92;100855.78;5026001;28;20386;-45
2023/06/24 03:14:41;;;;;;;10.30;5.15;;;;;;;18.28;66.05;100853.22;5027373;28;20471;-43
2023/06/24 03:17:08;;;;;;;11.60;5.00;;;;;;;18.26;65.72;100844.53;5018295;28;20057;-44
2023/06/24 03:19:34;;;;;;;8.45;4.85;;;;;;;18.22;66.21;100855.09;5025458;28;20049;-44
2023/06/24 03:22:02;;;;;;;7.63;3.45;;;;;;;18.18;65.77;100848.22;5028429;28;20430;-44
2023/06/24 03:24:29;;;;;;;8.40;5.78;;;;;;;18.17;66.42;100851.69;5024317;28;20049;-43
2023/06/24 03:26:56;;;;;;;8.80;5.10;;;;;;;18.14;65.91;100848.28;5026515;28;20488;-45
2023/06/24 03:29:23;;;;;;;9.60;4.95;;;;;;;18.12;66.75;100853.56;5024613;28;20053;-44
2023/06/24 03:31:50;;;;;;;10.90;4.82;;;;;;;18.10;65.85;100848.34;5026943;28;20489;-46
2023/06/24 03:34:17;;;;;;;8.63;4.93;;;;;;;18.07;66.43;100840.53;5021085;28;20057;-45
2023/06/24 03:36:44;;;;;;;12.77;6.00;;;;;;;18.06;66.65;100845.78;5023690;28;20559;-42
2023/06/24 03:39:10;;;;;;;11.55;5.50;;;;;;;18.04;66.16;100839.75;5025776;28;20052;-43
2023/06/24 03:41:37;;;;;;;10.02;5.80;;;;;;;18.03;66.35;100838.03;5024380;28;20052;-44
2023/06/24 03:44:04;;;;;;;11.77;6.35;;;;;;;18.02;66.17;100838.88;5023323;28;20053;-42
2023/06/24 03:46:32;;;;;;;21.30;6.32;;;;;;;18.02;66.46;100833.66;5022063;28;20684;-44
2023/06/24 03:49:00;;;;;;;14.48;5.15;;;;;;;18.01;66.33;100842.41;5020847;28;21960;-44
2023/06/24 03:51:27;;;;;;;10.55;5.78;;;;;;;18.02;66.69;100852.00;5023749;28;20048;-45
2023/06/24 03:53:53;;;;;;;9.55;5.93;;;;;;;18.04;66.90;100850.22;5024936;28;20107;-42
2023/06/24 03:56:20;;;;;;;13.48;6.18;;;;;;;18.04;66.52;100844.97;5027710;28;20056;-45
2023/06/24 03:58:47;;;;;;;11.10;6.30;;;;;;;18.05;67.33;100846.69;5024521;28;20133;-44
2023/06/24 04:01:13;;;;;;;11.02;5.50;;;;;;;18.05;66.81;100841.44;5022606;28;20049;-43
2023/06/24 04:03:40;;;;;;;11.63;5.88;;;;;;;18.05;66.75;100846.69;5025465;28;20133;-44
2023/06/24 04:06:07;;;;;;;12.45;5.53;;;;;;;18.06;66.91;100843.16;5023804;28;20056;-44
2023/06/24 04:08:33;;;;;;;15.35;5.63;;;;;;;18.11;67.27;100851.84;5023215;28;20065;-43
2023/06/24 04:11:02;;;;;;;9.27;5.93;;;;;;;18.14;67.33;100850.91;5020241;28;20456;-42
2023/06/24 04:13:29;;;;;;;9.13;5.28;;;;;;;18.18;67.47;100858.69;5017048;28;20684;-44
2023/06/24 04:15:57;;;;;;;8.65;4.20;;;;;;;18.22;67.45;100864.72;5021883;28;20503;-44
2023/06/24 04:18:24;;;;;;;10.30;5.63;;;;;;;18.26;67.54;100849.78;5024952;28;20084;-42
2023/06/24 04:20:51;;;;;;;9.35;5.80;;;;;;;18.28;67.55;100848.88;5023854;28;20085;-43
2023/06/24 04:23:17;;;;;;;9.27;4.95;;;;;;;18.32;68.02;100840.03;5023846;28;20049;-42
2023/06/24 04:25:44;;;;;;;12.18;5.47;;;;;;;18.34;67.47;100848.72;5023572;28;20056;-44
2023/06/24 04:28:11;;;;;;;9.13;5.82;;;;;;;18.39;67.50;100850.38;5026155;28;20104;-46
2023/06/24 04:30:39;;;;;;;9.73;5.47;;;;;;;18.43;68.21;100860.75;5021632;28;20491;-42
2023/06/24 04:33:05;;;;;;;9.52;5.65;;;;;;;18.47;67.78;100864.16;5025019;28;20570;-42
2023/06/24 04:35:32;;;;;;;9.25;5.70;;;;;;;18.50;67.82;100864.97;5023037;28;20065;-46
2023/06/24 04:38:00;;;;;;;9.65;4.40;;;;;;;18.55;68.39;100861.38;5017847;28;20460;-44
2023/06/24 04:40:26;;;;;;;12.23;5.78;;;;;;;18.57;68.47;100870.06;5020214;28;20056;-43
2023/06/24 04:42:53;;;;;;;9.95;4.93;;;;;;;18.60;68.32;100870.00;5024273;28;20762;-45
2023/06/24 04:45:20;;;;;;;8.15;4.78;;;;;;;18.62;68.43;100860.34;5019951;28;20129;-45
2023/06/24 04:47:47;;;;;;;13.45;5.47;;;;;;;18.63;68.02;100860.31;5022573;28;20049;-43
2023/06/24 04:50:14;;;;;;;11.18;5.00;;;;;;;18.69;68.30;100863.69;5025259;28;20893;-44
2023/06/24 04:52:41;;;;;;;10.50;5.43;;;;;;;18.72;68.89;100858.38;5025445;28;20071;-45
2023/06/24 04:55:08;;;;;;;8.32;4.80;;;;;;;18.75;68.43;100858.28;5023998;28;20053;-43
2023/06/24 04:57:34;;;;;;;8.70;5.20;;;;;;;18.78;68.83;100852.94;5021211;28;20531;-44
2023/06/24 05:00:01;;;;;;;9.82;5.35;;;;;;;18.82;68.08;100845.88;5026202;28;20037;-45
2023/06/24 05:02:28;;;;;;;10.68;5.03;;;;;;;18.84;68.15;100847.56;5024223;28;20050;-45
2023/06/24 05:04:55;;;;;;;8.65;5.00;;;;;;;18.87;68.66;100851.88;5027750;28;20057;-44
2023/06/24 05:07:21;;;;;;;8.40;5.03;;;;;;;18.89;69.10;100850.09;5025159;28;20136;-44
2023/06/24 05:09:48;;;;;;;11.43;4.93;;;;;;;18.93;68.66;100862.22;5025769;28;20037;-46
2023/06/24 05:12:15;;;;;;;12.48;5.35;;;;;;;18.98;68.50;100857.72;5022753;28;20041;-42
2023/06/24 05:14:42;;;;;;;8.63;4.32;;;;;;;19.01;69.28;100854.13;5025100;28;20056;-43
2023/06/24 05:17:09;;;;;;;8.20;4.57;;;;;;;19.02;68.86;100856.72;5018822;28;20060;-44
2023/06/24 05:19:35;;;;;;;7.70;4.50;;;;;;;19.07;68.65;100863.66;5025687;28;20048;-46
2023/06/24 05:22:02;;;;;;;9.43;4.85;;;;;;;19.11;69.08;100854.81;5022283;28;20053;-44
2023/06/24 05:24:29;;;;;;;9.98;4.30;;;;;;;19.13;68.69;100855.63;5021882;28;20052;-43
2023/06/24 05:26:55;;;;;;;8.82;5.15;;;;;;;19.17;69.13;100857.28;5022392;28;20053;-43
2023/06/24 05:29:22;;;;;;;8.32;4.82;;;;;;;19.22;69.30;100862.44;5019186;28;20076;-47
2023/06/24 05:31:49;;;;;;;6.72;4.63;;;;;;;19.26;68.86;100859.66;5017802;28;20184;-45
2023/06/24 05:34:16;;;;;;;9.90;4.90;;;;;;;19.30;68.68;100864.84;5018601;28;20049;-45
2023/06/24 05:36:42;;;;;;;13.95;4.40;;;;;;;19.35;68.81;100857.72;5016846;28;20049;-44
2023/06/24 05:39:11;;;;;;;8.52;4.82;;;;;;;19.40;68.83;100850.56;5022596;28;20045;-44
2023/06/24 05:41:37;;;;;;;10.35;5.00;;;;;;;19.44;69.08;100862.72;5024621;28;20049;-44
2023/06/24 05:44:06;;;;;;;6.82;4.68;;;;;;;19.52;69.06;100860.72;5023902;28;20068;-45
2023/06/24 05:46:33;;;;;;;8.30;4.72;;;;;;;19.58;68.56;100843.06;5023858;28;20132;-46
2023/06/24 05:49:00;;;;;;;8.13;5.13;;;;;;;19.64;68.85;100843.78;5025373;28;20042;-44
2023/06/24 05:51:27;;;;;;;9.25;4.90;;;;;;;19.75;69.12;100848.72;5025808;28;20180;-43
2023/06/24 05:53:53;;;;;;;9.05;4.60;;;;;;;19.89;69.14;100847.44;5027372;28;20048;-45
2023/06/24 05:56:22;;;;;;;5.10;3.20;;;;;;;20.08;69.35;100852.22;5021291;28;20382;-44
2023/06/24 05:58:49;;;;;;;6.68;4.07;;;;;;;20.31;69.29;100866.44;5019304;28;20492;-44
2023/06/24 06:01:15;;;;;;;9.07;4.30;;;;;;;20.49;68.63;100860.59;5015676;28;20038;-43
2023/06/24 06:03:42;;;;;;;7.97;5.22;;;;;;;20.67;68.69;100866.22;5019868;28;20082;-44
2023/06/24 06:06:09;;;;;;;7.40;3.40;;;;;;;20.93;69.03;100864.50;5016864;28;20386;-45
2023/06/24 06:08:36;;;;;;;6.00;4.43;;;;;;;21.23;68.70;100859.13;5016324;28;20064;-44
2023/06/24 06:11:03;;;;;;;7.07;4.53;;;;;;;21.46;67.90;100854.81;5014302;28;20045;-44
2023/06/24 06:13:30;;;;;;;7.10;4.65;;;;;;;21.67;67.59;100844.41;5013311;28;20046;-45
2023/06/24 06:15:57;;;;;;;8.13;4.43;;;;;;;21.84;67.30;100843.81;5002855;28;20049;-45
2023/06/24 06:18:24;;;;;;;5.93;4.18;;;;;;;22.01;66.57;100839.66;5010922;28;20119;-47
2023/06/24 06:20:51;;;;;;;6.43;4.25;;;;;;;22.06;66.54;100838.56;5010178;28;20054;-45
2023/06/24 06:23:17;;;;;;;7.07;4.13;;;;;;;22.17;66.46;100842.59;5011502;28;20065;-47
2023/06/24 06:25:44;;;;;;;5.47;3.67;;;;;;;22.19;65.38;100840.75;5014956;28;20653;-43
2023/06/24 06:28:14;;;;;;;6.95;4.18;;;;;;;22.27;66.35;100848.38;5014406;28;20136;-44
2023/06/24 06:30:41;;;;;;;8.05;4.28;;;;;;;22.42;66.69;100862.72;5024268;28;20050;-43
2023/06/24 06:33:08;;;;;;;9.63;4.18;;;;;;;22.58;65.83;100860.38;5023155;28;20050;-44
2023/06/24 06:35:34;;;;;;;8.30;4.88;;;;;;;22.77;65.64;100860.50;5024999;28;20049;-44
2023/06/24 06:38:02;;;;;;;7.38;2.83;;;;;;;22.92;64.99;100864.28;5021323;28;20619;-42
2023/06/24 06:40:28;;;;;;;7.43;3.75;;;;;;;23.07;64.94;100854.81;5020371;28;20044;-43
2023/06/24 06:42:55;;;;;;;7.15;4.30;;;;;;;23.24;64.35;100869.13;5021686;28;20099;-42
2023/06/24 06:45:22;;;;;;;5.65;3.58;;;;;;;23.43;64.47;100868.31;5025681;28;20042;-43
2023/06/24 06:47:50;;;;;;;5.70;3.38;;;;;;;23.65;63.99;100873.53;5022962;28;20060;-44
2023/06/24 06:50:17;;;;;;;5.72;3.72;;;;;;;23.86;63.76;100869.06;5015761;28;20487;-43
2023/06/24 06:52:44;;;;;;;4.97;3.70;;;;;;;24.07;62.92;100879.56;5024337;28;20041;-43
2023/06/24 06:55:10;;;;;;;4.65;3.30;;;;;;;24.24;62.46;100870.00;5025078;28;20050;-45
2023/06/24 06:57:37;;;;;;;5.43;3.53;;;;;;;24.44;62.75;100881.44;5031887;28;20052;-43
2023/06/24 07:00:04;;;;;;;7.25;4.18;;;;;;;24.61;61.62;100878.84;5025321;28;20053;-42
2023/06/24 07:02:31;;;;;;;6.80;3.80;;;;;;;24.79;61.81;100881.53;5019140;28;20060;-42
2023/06/24 07:04:59;;;;;;;8.70;4.20;;;;;;;25.00;61.36;100881.41;5014733;28;20049;-43
2023/06/24 07:07:25;;;;;;;5.03;3.55;;;;;;;25.21;60.49;100883.91;5017675;28;20053;-43
2023/06/24 07:09:52;;;;;;;4.35;3.33;;;;;;;25.36;60.28;100885.75;5011977;28;20045;-43
2023/06/24 07:12:20;;;;;;;6.40;3.30;;;;;;;25.58;59.83;100879.38;5019489;28;20046;-45
2023/06/24 07:14:47;;;;;;;3.88;2.53;;;;;;;25.86;59.59;100877.88;5017957;28;20256;-43
2023/06/24 07:17:14;;;;;;;5.40;3.55;;;;;;;26.20;59.38;100885.78;5022391;28;20052;-45
2023/06/24 07:19:41;;;;;;;4.22;3.08;;;;;;;26.38;58.09;100891.88;5016858;28;20042;-44
2023/06/24 07:22:07;;;;;;;5.15;3.55;;;;;;;26.43;57.26;100897.81;5016134;28;20053;-45
2023/06/24 07:24:34;;;;;;;5.47;3.20;;;;;;;26.42;56.99;100893.44;5017878;28;20050;-44
2023/06/24 07:27:00;;;;;;;6.20;3.70;;;;;;;26.54;57.24;100904.28;5023478;28;20045;-42
2023/06/24 07:29:28;;;;;;;6.50;3.95;;;;;;;26.62;56.78;100907.38;5017340;28;20053;-46
2023/06/24 07:31:54;;;;;;;4.20;3.47;;;;;;;26.68;56.70;100901.72;5017765;28;20053;-44
2023/06/24 07:34:21;;;;;;;5.38;3.33;;;;;;;26.72;56.18;100904.19;5014952;28;20049;-43
2023/06/24 07:36:47;;;;;;;4.90;3.08;;;;;;;26.73;55.93;100909.41;5018818;28;20061;-44
2023/06/24 07:39:14;;;;;;;5.13;4.03;;;;;;;26.77;56.27;100910.09;5012816;28;20053;-44
2023/06/24 07:41:42;;;;;;;7.78;4.05;;;;;;;26.79;55.94;100910.88;5013646;28;20520;-45
2023/06/24 07:44:09;;;;;;;6.95;4.53;;;;;;;26.71;55.37;100910.47;5019109;28;20054;-44
2023/06/24 07:46:36;;;;;;;4.05;3.17;;;;;;;26.56;55.25;100918.34;5019968;28;20045;-46
2023/06/24 07:49:03;;;;;;;5.70;3.67;;;;;;;26.42;55.48;100917.34;5023760;28;20054;-46
2023/06/24 07:51:30;;;;;;;6.57;3.58;;;;;;;26.29;55.52;100916.31;5026749;28;20112;-44
2023/06/24 07:53:57;;;;;;;4.90;3.67;;;;;;;26.13;55.84;100917.13;5024205;28;20046;-46
2023/06/24 07:56:23;;;;;;;6.07;3.65;;;;;;;26.03;55.57;100922.06;5016911;28;20061;-46
2023/06/24 07:58:50;;;;;;;4.78;3.55;;;;;;;25.90;56.16;100924.53;5023161;28;20045;-44
2023/06/24 08:01:16;;;;;;;3.83;3.40;;;;;;;25.78;56.27;100923.41;5017741;28;20046;-43
2023/06/24 08:03:43;;;;;;;6.13;3.95;;;;;;;25.74;56.50;100926.28;5022950;28;20456;-44
2023/06/24 08:06:10;;;;;;;6.88;3.75;;;;;;;25.72;56.22;100922.84;5023288;28;20053;-43
2023/06/24 08:08:37;;;;;;;6.32;4.43;;;;;;;25.69;56.50;100931.00;5025721;28;20046;-44
2023/06/24 08:11:03;;;;;;;4.82;3.70;;;;;;;25.65;56.29;100927.63;5026372;28;20049;-43
2023/06/24 08:13:30;;;;;;;3.58;2.20;;;;;;;25.62;56.28;100926.00;5026712;28;20527;-44
2023/06/24 08:15:57;;;;;;;4.72;3.33;;;;;;;25.63;56.68;100935.66;5024384;28;20408;-45
2023/06/24 08:18:23;;;;;;;6.57;3.67;;;;;;;25.62;56.52;100928.66;5020735;28;20677;-45
2023/06/24 08:20:50;;;;;;;6.40;3.38;;;;;;;25.65;56.88;100932.94;5020778;28;20049;-45
2023/06/24 08:23:16;;;;;;;6.22;4.60;;;;;;;25.70;56.76;100930.06;5016531;28;20070;-45
2023/06/24 08:25:43;;;;;;;5.53;3.40;;;;;;;25.83;57.22;100928.44;5023670;28;20724;-45
2023/06/24 08:28:11;;;;;;;6.78;3.30;;;;;;;26.03;56.68;100932.69;5024631;28;20053;-46
2023/06/24 08:30:37;;;;;;;5.40;4.07;;;;;;;26.24;56.48;100934.25;5014332;28;20045;-44
2023/06/24 08:33:04;;;;;;;6.13;4.45;;;;;;;26.36;56.16;100923.00;5023484;28;20060;-44
2023/06/24 08:35:31;;;;;;;6.35;4.30;;;;;;;26.50;55.91;100930.19;5022659;28;20524;-44
2023/06/24 08:37:57;;;;;;;4.63;3.42;;;;;;;26.63;55.99;100930.34;5027292;28;20076;-43
2023/06/24 08:40:24;;;;;;;5.93;3.45;;;;;;;26.68;55.46;100917.66;5029165;28;20037;-43
2023/06/24 08:42:51;;;;;;;4.45;3.25;;;;;;;26.82;55.61;100923.97;5031099;28;20049;-44
2023/06/24 08:45:17;;;;;;;7.70;3.80;;;;;;;27.01;55.91;100929.09;5032984;28;20056;-45
2023/06/24 08:47:46;;;;;;;4.47;3.75;;;;;;;27.18;55.32;100924.59;5026171;28;20049;-45
2023/06/24 08:50:14;;;;;;;5.75;3.22;;;;;;;27.29;54.38;100926.63;5026711;28;20041;-45
2023/06/24 08:52:45;;;;;;;3.63;2.92;;;;;;;27.38;55.09;100926.06;5026532;28;20049;-43
2023/06/24 08:55:15;;;;;;;5.85;3.45;;;;;;;27.49;54.46;100927.22;5018315;28;20041;-43
2023/06/24 08:57:42;;;;;;;4.75;3.67;;;;;;;27.61;54.35;100925.59;5027196;28;20119;-43
2023/06/24 09:00:10;;;;;;;3.78;2.63;;;;;;;27.69;53.72;100923.38;5026875;28;20455;-47
2023/06/24 09:02:38;;;;;;;4.20;3.33;;;;;;;27.72;54.00;100923.19;5023977;28;20041;-43
2023/06/24 09:05:07;;;;;;;4.45;3.30;;;;;;;27.79;53.02;100918.34;5025456;28;20077;-44
2023/06/24 09:07:34;;;;;;;6.25;3.85;;;;;;;27.88;54.07;100923.09;5023400;28;20049;-47
2023/06/24 09:10:01;;;;;;;3.90;3.15;;;;;;;28.01;53.72;100917.84;5031389;28;20402;-42
2023/06/24 09:12:31;;;;;;;6.32;4.05;;;;;;;28.08;53.47;100926.31;5023404;28;20135;-43
2023/06/24 09:14:57;;;;;;;5.55;3.65;;;;;;;28.17;53.68;100925.72;5018014;28;20042;-44
2023/06/24 09:17:24;;;;;;;4.60;4.18;;;;;;;28.21;52.88;100924.59;5025892;28;20153;-44
2023/06/24 09:19:53;;;;;;;;;;;;;;;28.18;53.31;100919.47;5018518;28;20045;-43
2023/06/24 09:22:20;;;;;;;4.95;4.35;;;;;;;28.32;52.50;100917.72;5028802;28;19921;-46
2023/06/24 09:24:48;;;;;;;4.20;3.58;;;;;;;28.34;52.82;100921.16;5025860;28;20140;-44
2023/06/24 09:27:19;;;;;;;6.18;3.88;;;;;;;28.35;52.27;100917.53;5019961;28;20114;-45
2023/06/24 09:29:47;;;;;;;5.15;4.65;;;;;;;28.30;52.86;100911.66;5021428;28;20050;-44
2023/06/24 09:32:14;;;;;;;4.20;2.83;;;;;;;28.30;53.54;100917.81;5026803;28;20415;-44
2023/06/24 09:34:41;;;;;;;5.22;3.30;;;;;;;28.40;53.56;100918.09;5026431;28;20053;-43
2023/06/24 09:37:07;;;;;;;4.30;3.30;;;;;;;28.54;52.64;100914.53;5027104;28;20111;-45
2023/06/24 09:39:40;;;;;;;5.03;3.67;;;;;;;28.66;52.73;100918.19;5023620;28;20046;-46
2023/06/24 09:42:07;;;;;;;6.20;3.92;;;;;;;28.77;51.98;100919.31;5028089;28;20123;-42
2023/06/24 09:44:34;;;;;;;4.95;3.45;;;;;;;28.93;52.22;100916.50;5026493;28;20046;-44
2023/06/24 09:47:01;;;;;;;3.83;2.92;;;;;;;29.18;51.91;100918.34;5024887;28;20059;-43
2023/06/24 09:49:28;;;;;;;5.07;4.43;;;;;;;29.42;52.53;100914.97;5026638;28;20049;-46
2023/06/24 09:51:57;;;;;;;5.22;4.18;;;;;;;29.72;52.82;100921.81;5024759;28;20042;-44
2023/06/24 09:54:27;;;;;;;4.95;3.65;;;;;;;30.06;51.81;100921.25;5026309;28;20061;-46
2023/06/24 09:57:02;;;;;;;4.07;2.75;;;;;;;30.33;50.87;100908.69;5025351;28;20477;-45
2023/06/24 09:59:30;;;;;;;4.05;3.70;;;;;;;30.48;50.00;100907.56;5020756;28;20525;-44
2023/06/24 10:01:57;;;;;;;4.78;3.70;;;;;;;30.50;49.67;100910.97;5027543;28;20048;-44
2023/06/24 10:04:27;;;;;;;4.45;3.65;;;;;;;30.41;49.06;100906.31;5029908;28;20053;-43
2023/06/24 10:06:54;;;;;;;5.93;2.90;;;;;;;30.36;49.48;100911.16;5034599;28;20159;-45
2023/06/24 10:09:21;;;;;;;6.20;3.28;;;;;;;30.42;50.12;100902.66;5029899;28;20053;-43
2023/06/24 10:11:48;;;;;;;4.30;3.28;;;;;;;30.37;49.17;100902.16;5033685;28;20049;-44
2023/06/24 10:14:15;;;;;;;3.85;3.05;;;;;;;30.41;49.38;100895.63;5030943;28;20137;-44
2023/06/24 10:16:43;;;;;;;2.97;2.28;;;;;;;30.53;49.01;100894.69;5033111;28;20096;-44
2023/06/24 10:19:10;;;;;;;5.18;2.58;;;;;;;30.67;49.91;100890.16;5025826;28;20399;-43
2023/06/24 10:21:47;;;;;;;5.75;3.35;;;;;;;30.80;48.01;100886.59;5029840;28;20497;-43
2023/06/24 10:24:28;;;;;;;4.70;3.25;;;;;;;30.84;47.39;100880.03;5029045;28;20493;-45
2023/06/24 10:27:00;;;;;;;4.65;3.70;;;;;;;30.97;47.79;100886.13;5021219;28;20140;-44
2023/06/24 10:29:47;;;;;;;3.92;3.38;;;;;;;31.01;47.38;100890.31;5028746;28;20056;-43
2023/06/24 10:32:15;;;;;;;4.80;3.78;;;;;;;31.00;46.79;100880.56;5026091;28;20054;-44
2023/06/24 10:34:44;;;;;;;4.97;3.40;;;;;;;30.93;46.90;100882.00;5028184;28;20103;-45
2023/06/24 10:47:48;;;;;;;5.10;3.70;;;;;;;30.82;46.53;100881.97;5062917;27;20457;-44
2023/06/24 10:50:20;;;;;;;6.45;4.45;;;;;;;30.55;46.30;100873.22;5041822;28;20279;-42
2023/06/24 10:52:49;;;;;;;5.45;3.90;;;;;;;30.25;46.71;100870.03;5039841;28;20049;-44
2023/06/24 10:55:17;;;;;;;4.13;3.35;;;;;;;30.01;47.31;100878.84;5038601;28;20041;-42
2023/06/24 10:57:44;;;;;;;4.60;4.20;;;;;;;29.79;47.98;100878.69;5036920;28;20052;-42
2023/06/24 11:00:12;;;;;;;5.40;4.00;;;;;;;29.59;48.41;100872.94;5031911;28;20099;-43
2023/06/24 11:02:39;;;;;;;5.28;3.90;;;;;;;29.43;49.00;100871.31;5023759;28;20049;-44
2023/06/24 11:05:06;;;;;;;4.85;3.78;;;;;;;29.36;48.44;100870.03;5031382;28;20052;-42
2023/06/24 11:07:35;;;;;;;4.55;3.53;;;;;;;29.38;49.53;100873.47;5033067;28;20504;-44
2023/06/24 11:12:39;;;;;;;3.22;1.92;;;;;;;29.47;49.46;100875.47;5008497;27;20892;-46
2023/06/24 11:15:09;;;;;;;6.35;3.03;;;;;;;29.50;49.53;100875.28;4999842;28;20103;-44
2023/06/24 11:17:37;;;;;;;3.90;2.33;;;;;;;29.55;48.64;100871.47;4998695;28;20073;-43
2023/06/24 11:20:09;;;;;;;4.10;2.60;;;;;;;29.64;48.73;100870.78;5002839;28;20053;-43
2023/06/24 11:22:36;;;;;;;3.55;2.20;;;;;;;29.73;49.46;100867.50;4996446;28;20058;-45
2023/06/24 11:25:03;;;;;;;5.43;2.80;;;;;;;29.86;48.69;100870.09;4991709;28;20045;-45
2023/06/24 11:27:31;;;;;;;3.40;2.42;;;;;;;29.98;48.54;100875.53;5001792;28;20056;-46
2023/06/24 11:30:01;;;;;;;3.17;2.42;;;;;;;30.09;49.43;100864.91;5002041;28;20140;-43
2023/06/24 11:32:37;;;;;;;4.53;2.40;;;;;;;30.20;49.31;100866.84;4998858;28;20063;-44
2023/06/24 11:35:14;;;;;;;3.92;2.33;;;;;;;30.27;48.08;100873.47;4999966;28;20104;-48
2023/06/24 11:37:43;;;;;;;3.72;2.72;;;;;;;30.33;47.50;100868.63;4999772;28;20058;-44
2023/06/24 11:40:10;;;;;;;4.22;2.53;;;;;;;30.33;48.15;100865.94;4997881;28;20050;-44
2023/06/24 11:42:39;;;;;;;3.47;2.65;;;;;;;30.35;48.23;100869.34;5000199;28;20050;-43
2023/06/24 11:45:08;;;;;;;3.75;2.60;;;;;;;30.35;47.63;100866.66;4999778;28;20141;-43
2023/06/24 11:47:36;;;;;;;4.72;2.58;;;;;;;30.35;47.98;100858.66;4998700;28;20100;-44
2023/06/24 11:50:05;;;;;;;2.90;2.40;;;;;;;30.36;47.63;100871.06;5002794;28;20046;-44
2023/06/24 11:55:19;;;;;;;7.80;2.20;;;;;;;30.35;47.53;100862.19;5066485;27;20396;-44